createdAt,value
2023-11-18T00:00:13.878Z,85.07
2023-11-18T00:03:16.437Z,84.16
2023-11-18T00:06:18.564Z,85.22
2023-11-18T00:09:21.522Z,85.29
2023-11-18T00:12:25.561Z,86.64
2023-11-18T00:15:27.925Z,86.47
2023-11-18T00:18:30.044Z,83.25
2023-11-18T00:21:32.396Z,84.54
2023-11-18T00:24:36.279Z,85.20
2023-11-18T00:27:39.298Z,82.17
2023-11-18T00:30:41.400Z,82.20
2023-11-18T00:33:44.441Z,83.31
2023-11-18T00:36:46.559Z,85.07
2023-11-18T00:39:48.573Z,86.47
2023-11-18T00:42:51.207Z,87.65
2023-11-18T00:45:53.382Z,82.66
2023-11-18T00:48:59.437Z,85.11
2023-11-18T00:52:01.585Z,83.62
2023-11-18T00:55:05.105Z,85.76
2023-11-18T00:58:07.198Z,86.91
2023-11-18T01:01:09.351Z,88.63
2023-11-18T01:04:11.543Z,88.44
2023-11-18T01:07:13.736Z,87.84
2023-11-18T01:10:15.839Z,85.61
2023-11-18T01:13:18.298Z,84.72
2023-11-18T01:16:21.459Z,85.82
2023-11-18T01:19:24.826Z,83.86
2023-11-18T01:22:27.027Z,84.79
2023-11-18T01:25:29.236Z,82.69
2023-11-18T01:28:34.387Z,82.27
2023-11-18T01:31:47.624Z,82.33
2023-11-18T01:34:54.901Z,83.72
2023-11-18T01:37:57.038Z,82.82
2023-11-18T01:40:59.108Z,81.49
2023-11-18T01:44:01.345Z,83.01
2023-11-18T01:47:07.221Z,84.04
2023-11-18T01:50:12.783Z,83.26
2023-11-18T01:53:18.393Z,84.75
2023-11-18T01:56:22.567Z,86.18
2023-11-18T01:59:27.036Z,83.90
2023-11-18T02:02:29.294Z,84.76
2023-11-18T02:05:31.416Z,82.03
2023-11-18T02:08:36.513Z,80.13
2023-11-18T02:11:44.617Z,82.04
2023-11-18T02:14:47.214Z,81.69
2023-11-18T02:17:51.447Z,81.62
2023-11-18T02:20:58.671Z,80.72
2023-11-18T02:24:00.804Z,80.45
2023-11-18T02:27:02.868Z,80.68
2023-11-18T02:30:07.659Z,79.47
2023-11-18T02:33:22.555Z,80.23
2023-11-18T02:36:37.305Z,80.94
2023-11-18T02:39:46.723Z,81.79
2023-11-18T02:42:54.495Z,82.13
2023-11-18T02:45:59.267Z,80.50
2023-11-18T02:49:03.769Z,80.35
2023-11-18T02:52:06.450Z,82.27
2023-11-18T02:55:10.021Z,81.20
2023-11-18T02:58:12.510Z,81.30
2023-11-18T03:01:14.540Z,82.22
2023-11-18T03:04:17.299Z,80.88
2023-11-18T03:07:19.388Z,82.09
2023-11-18T03:10:24.455Z,81.51
2023-11-18T03:13:26.612Z,82.08
2023-11-18T03:16:28.745Z,83.43
2023-11-18T03:19:30.921Z,82.01
2023-11-18T03:22:33.085Z,82.17
2023-11-18T03:25:35.293Z,81.59
2023-11-18T03:28:39.088Z,82.46
2023-11-18T03:31:41.276Z,82.36
2023-11-18T03:34:43.363Z,83.31
2023-11-18T03:37:45.480Z,82.21
2023-11-18T03:40:47.861Z,84.17
2023-11-18T03:43:49.933Z,85.57
2023-11-18T03:46:52.413Z,87.71
2023-11-18T03:49:55.651Z,86.90
2023-11-18T03:52:57.779Z,84.93
2023-11-18T03:56:00.315Z,84.81
2023-11-18T03:59:02.402Z,84.66
2023-11-18T04:02:04.740Z,84.15
2023-11-18T04:05:09.525Z,85.94
2023-11-18T04:08:12.984Z,83.69
2023-11-18T04:11:15.940Z,83.99
2023-11-18T04:14:18.164Z,83.03
2023-11-18T04:17:20.457Z,79.77
2023-11-18T04:20:22.761Z,80.47
2023-11-18T04:23:24.881Z,80.86
2023-11-18T04:26:26.980Z,78.33
2023-11-18T04:29:29.277Z,78.57
2023-11-18T04:32:34.386Z,79.90
2023-11-18T04:35:36.449Z,79.18
2023-11-18T04:38:38.567Z,79.30
2023-11-18T04:41:40.716Z,77.26
2023-11-18T04:44:43.838Z,80.09
2023-11-18T04:47:46.292Z,81.18
2023-11-18T04:50:48.845Z,83.59
2023-11-18T04:53:50.918Z,84.27
2023-11-18T04:56:53.630Z,83.25
2023-11-18T04:59:56.047Z,84.48
2023-11-18T05:02:59.764Z,86.21
2023-11-18T05:06:02.108Z,83.66
2023-11-18T05:09:09.009Z,81.33
2023-11-18T05:12:11.148Z,81.63
2023-11-18T05:15:14.173Z,82.38
2023-11-18T05:18:17.276Z,81.92
2023-11-18T05:21:19.994Z,82.05
2023-11-18T05:24:22.015Z,82.63
2023-11-18T05:27:24.236Z,79.69
2023-11-18T05:30:27.267Z,77.08
2023-11-18T05:33:30.187Z,79.77
2023-11-18T05:36:38.678Z,79.44
2023-11-18T05:39:45.234Z,81.29
2023-11-18T05:42:49.589Z,80.12
2023-11-18T05:46:10.161Z,80.70
2023-11-18T05:49:14.860Z,79.99
2023-11-18T05:52:16.877Z,79.13
2023-11-18T05:55:18.803Z,79.19
2023-11-18T05:58:20.882Z,78.55
2023-11-18T06:01:23.471Z,79.05
2023-11-18T06:04:26.974Z,82.23
2023-11-18T06:07:30.441Z,82.52
2023-11-18T06:10:33.512Z,80.41
2023-11-18T06:13:37.929Z,82.73
2023-11-18T06:16:43.400Z,84.53
2023-11-18T06:19:45.535Z,84.30
2023-11-18T06:22:47.584Z,85.28
2023-11-18T06:25:49.628Z,84.10
2023-11-18T06:28:51.635Z,80.95
2023-11-18T06:31:53.670Z,84.72
2023-11-18T06:36:21.550Z,82.26
2023-11-18T06:39:56.978Z,82.02
2023-11-18T06:43:04.253Z,79.42
2023-11-18T06:46:31.593Z,77.76
2023-11-18T06:50:14.355Z,78.23
2023-11-18T06:53:30.811Z,79.62
2023-11-18T06:56:36.594Z,78.16
2023-11-18T06:59:41.166Z,81.41
2023-11-18T07:02:56.190Z,80.41
2023-11-18T07:10:23.688Z,77.01
2023-11-18T07:13:40.328Z,74.57
2023-11-18T07:17:17.170Z,73.96
2023-11-18T07:21:22.636Z,75.24
2023-11-18T07:24:33.758Z,74.10
2023-11-18T07:27:38.600Z,73.99
2023-11-18T07:30:51.040Z,73.39
2023-11-18T07:33:54.099Z,74.66
2023-11-18T07:36:59.266Z,72.58
2023-11-18T07:40:09.974Z,74.76
2023-11-18T07:43:17.312Z,72.79
2023-11-18T07:46:19.468Z,72.03
2023-11-18T07:49:22.264Z,73.44
2023-11-18T07:52:25.211Z,72.88
2023-11-18T07:55:27.290Z,73.41
2023-11-18T07:58:29.290Z,75.06
2023-11-18T08:01:31.860Z,72.66
2023-11-18T08:04:34.053Z,74.06
2023-11-18T08:07:36.632Z,75.60
2023-11-18T08:10:40.534Z,73.43
2023-11-18T08:13:42.654Z,74.42
2023-11-18T08:16:44.856Z,75.20
2023-11-18T08:19:47.848Z,72.44
2023-11-18T08:22:50.201Z,74.92
2023-11-18T08:25:52.273Z,74.79
2023-11-18T08:28:54.764Z,75.63
2023-11-18T08:31:56.953Z,74.95
2023-11-18T08:34:59.124Z,75.81
2023-11-18T08:38:03.126Z,74.77
2023-11-18T08:41:11.324Z,76.11
2023-11-18T08:44:22.217Z,73.30
2023-11-18T08:47:26.937Z,72.83
2023-11-18T08:50:30.094Z,73.91
2023-11-18T08:53:37.338Z,73.37
2023-11-18T08:56:43.306Z,72.95
2023-11-18T08:59:45.919Z,74.00
2023-11-18T09:02:54.061Z,73.36
2023-11-18T09:05:59.414Z,72.30
2023-11-18T09:09:07.391Z,73.47
2023-11-18T09:12:09.812Z,74.13
2023-11-18T09:15:19.346Z,75.21
2023-11-18T09:18:23.323Z,74.06
2023-11-18T09:21:30.821Z,74.77
2023-11-18T09:24:35.566Z,76.49
2023-11-18T09:27:39.848Z,76.91
2023-11-18T09:30:58.878Z,77.02
2023-11-18T09:34:01.418Z,78.95
2023-11-18T09:37:05.426Z,78.40
2023-11-18T09:40:14.933Z,79.87
2023-11-18T09:43:18.191Z,78.98
2023-11-18T09:46:32.585Z,79.35
2023-11-18T09:49:57.716Z,78.56
2023-11-18T09:53:08.249Z,79.26
2023-11-18T09:56:27.810Z,75.32
2023-11-18T09:59:37.335Z,73.88
2023-11-18T10:02:42.790Z,74.05
2023-11-18T10:05:47.072Z,74.23
2023-11-18T10:08:54.706Z,75.88
2023-11-18T10:12:07.013Z,73.68
2023-11-18T10:15:20.360Z,72.69
2023-11-18T10:18:24.516Z,71.92
2023-11-18T10:21:42.672Z,71.46
2023-11-18T10:24:55.892Z,70.82
2023-11-18T10:28:02.501Z,71.31
2023-11-18T10:31:10.969Z,72.42
2023-11-18T10:34:17.226Z,70.16
2023-11-18T10:37:19.323Z,69.05
2023-11-18T10:40:25.445Z,70.49
2023-11-18T10:43:30.133Z,68.98
2023-11-18T10:46:33.563Z,70.23
2023-11-18T10:49:38.767Z,69.58
2023-11-18T10:52:42.687Z,70.88
2023-11-18T10:55:45.427Z,70.69
2023-11-18T10:58:47.882Z,70.78
2023-11-18T11:01:53.113Z,69.95
2023-11-18T11:04:55.306Z,70.41
2023-11-18T11:07:58.508Z,71.35
2023-11-18T11:11:04.906Z,70.88
2023-11-18T11:14:12.116Z,71.23
2023-11-18T11:17:27.000Z,70.98
2023-11-18T11:20:36.490Z,70.60
2023-11-18T11:23:55.437Z,72.82
2023-11-18T11:27:07.142Z,71.33
2023-11-18T11:30:26.665Z,71.54
2023-11-18T11:34:00.294Z,71.78
2023-11-18T11:37:04.675Z,71.77
2023-11-18T11:40:11.858Z,71.95
2023-11-18T11:43:17.196Z,72.97
2023-11-18T11:46:26.041Z,71.93
2023-11-18T11:49:38.323Z,70.70
2023-11-18T11:52:50.253Z,71.41
2023-11-18T11:55:54.769Z,72.07
2023-11-18T11:59:01.241Z,71.71
2023-11-18T12:02:09.008Z,70.94
2023-11-18T12:05:20.596Z,71.15
2023-11-18T12:08:24.567Z,71.82
2023-11-18T12:11:29.417Z,70.46
2023-11-18T12:14:39.304Z,70.18
2023-11-18T12:18:04.789Z,70.92
2023-11-18T12:21:12.648Z,70.96
2023-11-18T12:24:20.203Z,71.00
2023-11-18T12:27:40.826Z,72.09
2023-11-18T12:30:53.731Z,72.09
2023-11-18T12:33:55.821Z,71.07
2023-11-18T12:37:35.994Z,71.94
2023-11-18T12:41:01.302Z,71.24
2023-11-18T12:44:19.856Z,70.42
2023-11-18T12:47:29.953Z,70.43
2023-11-18T12:50:37.113Z,69.90
2023-11-18T12:53:39.745Z,69.69
2023-11-18T12:56:45.467Z,70.08
2023-11-18T12:59:47.790Z,67.86
2023-11-18T13:02:50.053Z,69.53
2023-11-18T13:05:53.412Z,68.60
2023-11-18T13:08:56.082Z,68.69
2023-11-18T13:12:03.018Z,68.05
2023-11-18T13:15:09.979Z,69.18
2023-11-18T13:18:13.634Z,68.44
2023-11-18T13:21:17.813Z,69.14
2023-11-18T13:24:19.882Z,67.46
2023-11-18T13:27:24.315Z,67.48
2023-11-18T13:30:26.274Z,67.52
2023-11-18T13:33:29.203Z,65.32
2023-11-18T13:36:33.307Z,64.97
2023-11-18T13:39:39.883Z,64.26
2023-11-18T13:42:43.425Z,63.46
2023-11-18T13:45:53.413Z,65.28
2023-11-18T13:48:55.532Z,61.46
2023-11-18T13:51:58.795Z,61.61
2023-11-18T13:55:01.745Z,61.81
2023-11-18T13:58:06.295Z,60.85
2023-11-18T14:01:09.610Z,60.27
2023-11-18T14:04:12.030Z,61.10
2023-11-18T14:07:18.731Z,59.59
2023-11-18T14:10:20.918Z,59.23
2023-11-18T14:13:23.528Z,60.83
2023-11-18T14:16:27.558Z,60.20
2023-11-18T14:19:33.273Z,59.44
2023-11-18T14:22:35.604Z,58.89
2023-11-18T14:25:38.762Z,59.06
2023-11-18T14:28:41.953Z,58.51
2023-11-18T14:31:45.550Z,59.89
2023-11-18T14:34:50.290Z,60.95
2023-11-18T14:37:52.438Z,59.99
2023-11-18T14:40:54.933Z,58.13
2023-11-18T14:43:58.804Z,59.17
2023-11-18T14:47:01.519Z,60.77
2023-11-18T14:50:04.439Z,60.04
2023-11-18T14:53:07.291Z,60.91
2023-11-18T14:56:10.220Z,62.25
2023-11-18T14:59:13.712Z,63.72
2023-11-18T15:02:16.252Z,63.39
2023-11-18T15:05:19.872Z,64.09
2023-11-18T15:08:22.086Z,65.08
2023-11-18T15:11:24.932Z,67.12
2023-11-18T15:14:27.223Z,68.68
2023-11-18T15:17:41.284Z,70.21
2023-11-18T15:20:48.966Z,68.97
2023-11-18T15:23:51.544Z,69.30
2023-11-18T15:26:53.603Z,69.52
2023-11-18T15:29:56.355Z,66.50
2023-11-18T15:32:59.051Z,66.42
2023-11-18T15:36:02.704Z,68.74
2023-11-18T15:39:05.679Z,69.99
2023-11-18T15:42:08.580Z,70.38
2023-11-18T15:45:12.312Z,69.82
2023-11-18T15:48:16.090Z,73.34
2023-11-18T15:51:21.168Z,73.39
2023-11-18T15:54:23.311Z,74.67
2023-11-18T15:57:25.346Z,75.62
2023-11-18T16:00:29.796Z,77.31
2023-11-18T16:03:32.349Z,75.97
2023-11-18T16:06:34.634Z,77.15
2023-11-18T16:09:36.885Z,77.56
2023-11-18T16:12:39.084Z,79.24
2023-11-18T16:15:42.381Z,77.76
2023-11-18T16:18:44.662Z,78.65
2023-11-18T16:21:48.453Z,77.31
2023-11-18T16:24:50.518Z,76.86
2023-11-18T16:27:53.861Z,76.14
2023-11-18T16:31:00.988Z,77.20
2023-11-18T16:34:04.003Z,76.52
2023-11-18T16:37:06.091Z,76.93
2023-11-18T16:40:16.116Z,74.39
2023-11-18T16:43:18.249Z,75.02
2023-11-18T16:46:20.348Z,77.99
2023-11-18T16:49:25.105Z,79.35
2023-11-18T16:52:27.476Z,80.10
2023-11-18T16:55:32.894Z,78.46
2023-11-18T16:58:36.631Z,78.71
2023-11-18T17:01:38.895Z,77.97
2023-11-18T17:04:41.344Z,78.28
2023-11-18T17:07:44.361Z,79.70
2023-11-18T17:10:53.430Z,80.29
2023-11-18T17:13:55.579Z,81.95
2023-11-18T17:16:58.490Z,82.13
2023-11-18T17:20:01.533Z,83.20
2023-11-18T17:23:04.624Z,83.43
2023-11-18T17:26:10.201Z,84.53
2023-11-18T17:29:15.165Z,85.40
2023-11-18T17:32:17.581Z,86.27
2023-11-18T17:35:21.622Z,86.90
2023-11-18T17:38:23.941Z,87.57
2023-11-18T17:41:26.730Z,87.57
2023-11-18T17:44:29.393Z,89.50
2023-11-18T17:47:35.937Z,90.89
2023-11-18T17:50:38.607Z,92.05
2023-11-18T17:53:40.796Z,91.67
2023-11-18T17:56:43.041Z,91.89
2023-11-18T17:59:45.349Z,92.33
2023-11-18T18:02:48.474Z,92.81
2023-11-18T18:05:52.488Z,92.61
2023-11-18T18:08:55.064Z,93.11
2023-11-18T18:11:57.594Z,93.64
2023-11-18T18:15:00.238Z,94.36
2023-11-18T18:18:03.222Z,94.72
2023-11-18T18:21:05.498Z,95.54
2023-11-18T18:24:08.327Z,95.94
2023-11-18T18:27:10.870Z,96.79
2023-11-18T18:30:17.997Z,97.10
2023-11-18T18:33:21.208Z,97.24
2023-11-18T18:36:23.378Z,98.44
2023-11-18T18:39:25.687Z,98.49
2023-11-18T18:42:28.457Z,99.08
2023-11-18T18:45:32.094Z,99.25
2023-11-18T18:48:34.999Z,100.00
2023-11-18T18:51:37.314Z,100.00
2023-11-18T18:54:39.850Z,100.00
2023-11-18T18:57:42.102Z,100.00
2023-11-18T19:00:44.568Z,100.00
2023-11-18T19:03:47.315Z,100.00
2023-11-18T19:06:51.171Z,100.00
2023-11-18T19:09:53.308Z,100.00
2023-11-18T19:13:01.151Z,100.00
2023-11-18T19:16:05.759Z,100.00
2023-11-18T19:19:07.875Z,100.00
2023-11-18T19:22:09.861Z,100.00
2023-11-18T19:25:14.399Z,100.00
2023-11-18T19:28:17.044Z,100.00
2023-11-18T19:31:19.815Z,100.00
2023-11-18T19:34:24.426Z,100.00
2023-11-18T19:37:26.612Z,100.00
2023-11-18T19:40:30.136Z,100.00
2023-11-18T19:43:34.799Z,100.00
2023-11-18T19:46:36.896Z,100.00
2023-11-18T19:49:39.070Z,100.00
2023-11-18T19:52:48.579Z,100.00
2023-11-18T19:55:54.126Z,100.00
2023-11-18T19:58:58.561Z,100.00
2023-11-18T20:02:02.658Z,100.00
2023-11-18T20:05:06.048Z,100.00
2023-11-18T20:08:08.457Z,100.00
2023-11-18T20:11:11.443Z,100.00
2023-11-18T20:14:14.061Z,100.00
2023-11-18T20:17:16.186Z,100.00
2023-11-18T20:20:19.545Z,100.00
2023-11-18T20:23:23.090Z,100.00
2023-11-18T20:26:26.596Z,100.00
2023-11-18T20:29:30.723Z,100.00
2023-11-18T20:32:35.011Z,100.00
2023-11-18T20:35:38.266Z,100.00
2023-11-18T20:38:40.561Z,100.00
2023-11-18T20:41:42.969Z,100.00
2023-11-18T20:44:45.239Z,100.00
2023-11-18T20:47:48.462Z,100.00
2023-11-18T20:50:52.927Z,100.00
2023-11-18T20:53:55.112Z,100.00
2023-11-18T20:56:57.228Z,100.00
2023-11-18T20:59:59.848Z,100.00
2023-11-18T21:03:03.268Z,100.00
2023-11-18T21:06:06.903Z,100.00
2023-11-18T21:09:09.318Z,100.00
2023-11-18T21:12:18.266Z,100.00
2023-11-18T21:15:21.495Z,100.00
2023-11-18T21:18:24.185Z,100.00
2023-11-18T21:21:26.449Z,100.00
2023-11-18T21:24:28.990Z,100.00
2023-11-18T21:27:31.638Z,100.00
2023-11-18T21:30:34.004Z,100.00
2023-11-18T21:33:38.819Z,100.00
2023-11-18T21:36:41.365Z,100.00
2023-11-18T21:39:43.938Z,100.00
2023-11-18T21:42:47.801Z,100.00
2023-11-18T21:45:51.399Z,100.00
2023-11-18T21:48:53.745Z,100.00
2023-11-18T21:51:56.814Z,100.00
2023-11-18T21:54:59.670Z,100.00
2023-11-18T21:58:02.811Z,100.00
2023-11-18T22:01:07.194Z,100.00
2023-11-18T22:04:09.719Z,100.00
2023-11-18T22:07:13.098Z,100.00
2023-11-18T22:10:18.336Z,100.00
2023-11-18T22:13:21.481Z,100.00
2023-11-18T22:16:27.077Z,100.00
2023-11-18T22:19:29.521Z,100.00
2023-11-18T22:22:34.670Z,100.00
2023-11-18T22:25:37.366Z,100.00
2023-11-18T22:28:40.929Z,100.00
2023-11-18T22:31:46.429Z,100.00
2023-11-18T22:34:48.956Z,100.00
2023-11-18T22:37:51.473Z,100.00
2023-11-18T22:40:54.072Z,100.00
2023-11-18T22:44:01.424Z,100.00
2023-11-18T22:47:05.957Z,100.00
2023-11-18T22:50:16.537Z,100.00
2023-11-18T22:53:19.055Z,100.00
2023-11-18T22:56:21.635Z,100.00
2023-11-18T22:59:24.124Z,100.00
2023-11-18T23:02:26.243Z,100.00
2023-11-18T23:05:28.424Z,100.00
2023-11-18T23:08:33.611Z,100.00
2023-11-18T23:11:35.655Z,100.00
2023-11-18T23:14:57.721Z,100.00
2023-11-18T23:18:02.218Z,100.00
2023-11-18T23:21:04.559Z,100.00
2023-11-18T23:24:07.173Z,100.00
2023-11-18T23:27:09.798Z,100.00
2023-11-18T23:30:15.087Z,100.00
2023-11-18T23:33:19.888Z,100.00
2023-11-18T23:36:22.561Z,100.00
2023-11-18T23:39:30.055Z,100.00
2023-11-18T23:42:33.255Z,100.00
2023-11-18T23:45:35.413Z,100.00
2023-11-18T23:48:45.284Z,100.00
2023-11-18T23:51:48.106Z,100.00
2023-11-18T23:54:51.678Z,100.00
2023-11-18T23:57:53.937Z,100.00
